sensor_id;sensor_type;location;lat;lon;timestamp;P1;durP1;ratioP1;P2;durP2;ratioP2
9256;SDS011;4665;51.368;6.782;2023-02-15T00:00:02;13.87;;;10.17;;
9256;SDS011;4665;51.368;6.782;2023-02-15T00:02:30;13.23;;;9.90;;
9256;SDS011;4665;51.368;6.782;2023-02-15T00:05:02;12.43;;;9.13;;
9256;SDS011;4665;51.368;6.782;2023-02-15T00:07:27;14.10;;;10.93;;
9256;SDS011;4665;51.368;6.782;2023-02-15T00:09:53;15.87;;;10.90;;
9256;SDS011;4665;51.368;6.782;2023-02-15T00:12:18;13.63;;;9.87;;
9256;SDS011;4665;51.368;6.782;2023-02-15T00:14:45;14.10;;;10.83;;
9256;SDS011;4665;51.368;6.782;2023-02-15T00:17:10;15.47;;;10.90;;
9256;SDS011;4665;51.368;6.782;2023-02-15T00:19:36;15.73;;;11.43;;
9256;SDS011;4665;51.368;6.782;2023-02-15T00:22:01;13.43;;;10.37;;
9256;SDS011;4665;51.368;6.782;2023-02-15T00:24:27;18.00;;;12.50;;
9256;SDS011;4665;51.368;6.782;2023-02-15T00:26:52;15.93;;;11.83;;
9256;SDS011;4665;51.368;6.782;2023-02-15T00:29:19;16.83;;;11.73;;
9256;SDS011;4665;51.368;6.782;2023-02-15T00:31:45;18.63;;;13.33;;
9256;SDS011;4665;51.368;6.782;2023-02-15T00:34:18;15.33;;;11.63;;
9256;SDS011;4665;51.368;6.782;2023-02-15T00:36:46;17.97;;;12.57;;
9256;SDS011;4665;51.368;6.782;2023-02-15T00:39:12;16.80;;;12.63;;
9256;SDS011;4665;51.368;6.782;2023-02-15T00:41:38;16.17;;;11.83;;
9256;SDS011;4665;51.368;6.782;2023-02-15T00:47:04;15.97;;;11.07;;
9256;SDS011;4665;51.368;6.782;2023-02-15T00:49:29;14.50;;;11.53;;
9256;SDS011;4665;51.368;6.782;2023-02-15T00:51:55;15.60;;;11.73;;
9256;SDS011;4665;51.368;6.782;2023-02-15T00:54:20;15.93;;;11.77;;
9256;SDS011;4665;51.368;6.782;2023-02-15T00:56:45;15.60;;;11.50;;
9256;SDS011;4665;51.368;6.782;2023-02-15T00:59:11;16.87;;;12.17;;
9256;SDS011;4665;51.368;6.782;2023-02-15T01:01:36;15.70;;;11.97;;
9256;SDS011;4665;51.368;6.782;2023-02-15T01:04:02;13.60;;;10.30;;
9256;SDS011;4665;51.368;6.782;2023-02-15T01:06:27;17.00;;;12.73;;
9256;SDS011;4665;51.368;6.782;2023-02-15T01:08:53;17.73;;;11.83;;
9256;SDS011;4665;51.368;6.782;2023-02-15T01:11:19;17.90;;;12.83;;
9256;SDS011;4665;51.368;6.782;2023-02-15T01:13:51;15.07;;;11.63;;
9256;SDS011;4665;51.368;6.782;2023-02-15T01:16:17;17.37;;;10.83;;
9256;SDS011;4665;51.368;6.782;2023-02-15T01:18:44;15.87;;;11.30;;
9256;SDS011;4665;51.368;6.782;2023-02-15T01:21:13;16.83;;;12.43;;
9256;SDS011;4665;51.368;6.782;2023-02-15T01:23:42;18.03;;;12.17;;
9256;SDS011;4665;51.368;6.782;2023-02-15T01:26:08;18.27;;;12.57;;
9256;SDS011;4665;51.368;6.782;2023-02-15T01:28:35;18.77;;;12.50;;
9256;SDS011;4665;51.368;6.782;2023-02-15T01:31:08;14.67;;;11.07;;
9256;SDS011;4665;51.368;6.782;2023-02-15T01:33:35;17.93;;;13.00;;
9256;SDS011;4665;51.368;6.782;2023-02-15T01:36:01;19.07;;;11.83;;
9256;SDS011;4665;51.368;6.782;2023-02-15T01:38:27;14.50;;;11.80;;
9256;SDS011;4665;51.368;6.782;2023-02-15T01:40:53;18.63;;;12.43;;
9256;SDS011;4665;51.368;6.782;2023-02-15T01:43:43;14.20;;;11.67;;
9256;SDS011;4665;51.368;6.782;2023-02-15T01:46:10;16.37;;;12.50;;
9256;SDS011;4665;51.368;6.782;2023-02-15T01:48:48;15.60;;;11.70;;
9256;SDS011;4665;51.368;6.782;2023-02-15T01:51:20;19.87;;;13.00;;
9256;SDS011;4665;51.368;6.782;2023-02-15T01:53:50;18.20;;;13.00;;
9256;SDS011;4665;51.368;6.782;2023-02-15T01:56:23;17.03;;;12.80;;
9256;SDS011;4665;51.368;6.782;2023-02-15T01:58:53;16.87;;;12.70;;
9256;SDS011;4665;51.368;6.782;2023-02-15T02:01:20;17.73;;;13.17;;
9256;SDS011;4665;51.368;6.782;2023-02-15T02:04:02;20.37;;;13.47;;
9256;SDS011;4665;51.368;6.782;2023-02-15T02:06:30;19.00;;;12.93;;
9256;SDS011;4665;51.368;6.782;2023-02-15T02:08:58;16.87;;;11.80;;
9256;SDS011;4665;51.368;6.782;2023-02-15T02:11:25;18.50;;;12.70;;
9256;SDS011;4665;51.368;6.782;2023-02-15T02:13:50;17.17;;;12.60;;
9256;SDS011;4665;51.368;6.782;2023-02-15T02:16:37;21.03;;;13.57;;
9256;SDS011;4665;51.368;6.782;2023-02-15T02:33:28;20.10;;;14.20;;
9256;SDS011;4665;51.368;6.782;2023-02-15T02:41:37;20.60;;;14.17;;
9256;SDS011;4665;51.368;6.782;2023-02-15T02:47:23;17.47;;;12.70;;
9256;SDS011;4665;51.368;6.782;2023-02-15T02:49:52;17.47;;;12.93;;
9256;SDS011;4665;51.368;6.782;2023-02-15T02:52:36;18.07;;;13.43;;
9256;SDS011;4665;51.368;6.782;2023-02-15T02:55:10;19.13;;;13.93;;
9256;SDS011;4665;51.368;6.782;2023-02-15T02:57:37;18.90;;;13.60;;
9256;SDS011;4665;51.368;6.782;2023-02-15T03:00:08;18.43;;;12.73;;
9256;SDS011;4665;51.368;6.782;2023-02-15T03:02:35;22.07;;;14.40;;
9256;SDS011;4665;51.368;6.782;2023-02-15T03:05:05;21.77;;;13.97;;
9256;SDS011;4665;51.368;6.782;2023-02-15T03:07:33;18.97;;;13.77;;
9256;SDS011;4665;51.368;6.782;2023-02-15T03:10:01;16.90;;;12.93;;
9256;SDS011;4665;51.368;6.782;2023-02-15T03:12:34;21.67;;;14.37;;
9256;SDS011;4665;51.368;6.782;2023-02-15T03:17:38;16.33;;;12.00;;
9256;SDS011;4665;51.368;6.782;2023-02-15T03:20:09;17.67;;;12.23;;
9256;SDS011;4665;51.368;6.782;2023-02-15T03:22:48;19.03;;;14.00;;
9256;SDS011;4665;51.368;6.782;2023-02-15T03:25:24;18.43;;;13.70;;
9256;SDS011;4665;51.368;6.782;2023-02-15T03:27:54;21.40;;;13.87;;
9256;SDS011;4665;51.368;6.782;2023-02-15T03:30:23;20.57;;;13.83;;
9256;SDS011;4665;51.368;6.782;2023-02-15T03:32:50;17.50;;;13.00;;
9256;SDS011;4665;51.368;6.782;2023-02-15T03:35:19;21.27;;;14.40;;
9256;SDS011;4665;51.368;6.782;2023-02-15T03:37:48;20.87;;;14.47;;
9256;SDS011;4665;51.368;6.782;2023-02-15T03:43:21;21.60;;;14.90;;
9256;SDS011;4665;51.368;6.782;2023-02-15T03:45:56;18.93;;;13.00;;
9256;SDS011;4665;51.368;6.782;2023-02-15T03:48:35;17.97;;;12.57;;
9256;SDS011;4665;51.368;6.782;2023-02-15T03:51:07;19.70;;;13.73;;
9256;SDS011;4665;51.368;6.782;2023-02-15T03:54:15;15.93;;;11.77;;
9256;SDS011;4665;51.368;6.782;2023-02-15T03:57:04;22.17;;;14.97;;
9256;SDS011;4665;51.368;6.782;2023-02-15T03:59:50;19.13;;;14.17;;
9256;SDS011;4665;51.368;6.782;2023-02-15T04:02:38;21.73;;;14.90;;
9256;SDS011;4665;51.368;6.782;2023-02-15T04:05:10;19.87;;;13.77;;
9256;SDS011;4665;51.368;6.782;2023-02-15T04:07:35;19.03;;;13.17;;
9256;SDS011;4665;51.368;6.782;2023-02-15T04:10:01;18.23;;;13.27;;
9256;SDS011;4665;51.368;6.782;2023-02-15T04:12:45;20.47;;;13.70;;
9256;SDS011;4665;51.368;6.782;2023-02-15T04:15:13;21.10;;;14.20;;
9256;SDS011;4665;51.368;6.782;2023-02-15T04:17:57;18.80;;;13.33;;
9256;SDS011;4665;51.368;6.782;2023-02-15T04:20:22;20.03;;;14.13;;
9256;SDS011;4665;51.368;6.782;2023-02-15T04:23:07;17.83;;;12.90;;
9256;SDS011;4665;51.368;6.782;2023-02-15T04:25:51;23.53;;;14.57;;
9256;SDS011;4665;51.368;6.782;2023-02-15T04:28:17;19.67;;;14.00;;
9256;SDS011;4665;51.368;6.782;2023-02-15T04:30:42;17.77;;;12.77;;
9256;SDS011;4665;51.368;6.782;2023-02-15T04:33:08;20.43;;;14.23;;
9256;SDS011;4665;51.368;6.782;2023-02-15T04:35:33;20.77;;;13.97;;
9256;SDS011;4665;51.368;6.782;2023-02-15T04:37:59;19.33;;;14.10;;
9256;SDS011;4665;51.368;6.782;2023-02-15T04:40:24;17.30;;;13.43;;
9256;SDS011;4665;51.368;6.782;2023-02-15T04:42:50;23.70;;;15.57;;
9256;SDS011;4665;51.368;6.782;2023-02-15T04:45:16;20.87;;;14.83;;
9256;SDS011;4665;51.368;6.782;2023-02-15T04:47:42;20.30;;;13.97;;
9256;SDS011;4665;51.368;6.782;2023-02-15T04:50:07;17.07;;;12.37;;
9256;SDS011;4665;51.368;6.782;2023-02-15T04:52:33;19.97;;;13.60;;
9256;SDS011;4665;51.368;6.782;2023-02-15T04:54:59;21.00;;;13.97;;
9256;SDS011;4665;51.368;6.782;2023-02-15T04:57:24;21.50;;;15.03;;
9256;SDS011;4665;51.368;6.782;2023-02-15T04:59:50;21.77;;;14.57;;
9256;SDS011;4665;51.368;6.782;2023-02-15T05:02:15;21.27;;;14.23;;
9256;SDS011;4665;51.368;6.782;2023-02-15T05:04:41;19.70;;;13.83;;
9256;SDS011;4665;51.368;6.782;2023-02-15T05:07:06;20.07;;;13.23;;
9256;SDS011;4665;51.368;6.782;2023-02-15T05:09:32;23.50;;;15.20;;
9256;SDS011;4665;51.368;6.782;2023-02-15T05:11:57;21.03;;;15.10;;
9256;SDS011;4665;51.368;6.782;2023-02-15T05:14:23;21.13;;;14.10;;
9256;SDS011;4665;51.368;6.782;2023-02-15T05:16:48;16.87;;;12.73;;
9256;SDS011;4665;51.368;6.782;2023-02-15T05:19:14;22.57;;;15.50;;
9256;SDS011;4665;51.368;6.782;2023-02-15T05:21:39;20.43;;;14.77;;
9256;SDS011;4665;51.368;6.782;2023-02-15T05:24:05;18.47;;;12.43;;
9256;SDS011;4665;51.368;6.782;2023-02-15T05:26:50;22.97;;;15.27;;
9256;SDS011;4665;51.368;6.782;2023-02-15T05:29:34;21.07;;;14.10;;
9256;SDS011;4665;51.368;6.782;2023-02-15T05:32:00;21.40;;;14.73;;
9256;SDS011;4665;51.368;6.782;2023-02-15T05:34:25;25.97;;;15.50;;
9256;SDS011;4665;51.368;6.782;2023-02-15T05:36:51;22.73;;;15.57;;
9256;SDS011;4665;51.368;6.782;2023-02-15T05:39:16;23.03;;;15.33;;
9256;SDS011;4665;51.368;6.782;2023-02-15T05:41:41;23.27;;;14.93;;
9256;SDS011;4665;51.368;6.782;2023-02-15T05:44:07;24.23;;;15.53;;
9256;SDS011;4665;51.368;6.782;2023-02-15T05:46:32;23.30;;;15.37;;
9256;SDS011;4665;51.368;6.782;2023-02-15T05:48:58;26.60;;;15.40;;
9256;SDS011;4665;51.368;6.782;2023-02-15T05:51:23;21.70;;;14.70;;
9256;SDS011;4665;51.368;6.782;2023-02-15T05:53:49;22.33;;;14.70;;
9256;SDS011;4665;51.368;6.782;2023-02-15T05:56:14;22.93;;;15.87;;
9256;SDS011;4665;51.368;6.782;2023-02-15T05:58:40;25.47;;;15.63;;
9256;SDS011;4665;51.368;6.782;2023-02-15T06:01:10;23.37;;;15.13;;
9256;SDS011;4665;51.368;6.782;2023-02-15T06:03:40;22.73;;;15.63;;
9256;SDS011;4665;51.368;6.782;2023-02-15T06:06:06;24.63;;;17.37;;
9256;SDS011;4665;51.368;6.782;2023-02-15T06:08:32;24.07;;;16.10;;
9256;SDS011;4665;51.368;6.782;2023-02-15T06:10:59;24.60;;;16.50;;
9256;SDS011;4665;51.368;6.782;2023-02-15T06:13:25;22.40;;;16.23;;
9256;SDS011;4665;51.368;6.782;2023-02-15T06:15:51;28.77;;;18.77;;
9256;SDS011;4665;51.368;6.782;2023-02-15T06:18:16;27.60;;;18.23;;
9256;SDS011;4665;51.368;6.782;2023-02-15T06:20:42;26.30;;;17.67;;
9256;SDS011;4665;51.368;6.782;2023-02-15T06:23:07;30.27;;;17.77;;
9256;SDS011;4665;51.368;6.782;2023-02-15T06:25:32;26.40;;;17.13;;
9256;SDS011;4665;51.368;6.782;2023-02-15T06:27:58;27.83;;;17.43;;
9256;SDS011;4665;51.368;6.782;2023-02-15T06:30:23;27.17;;;18.23;;
9256;SDS011;4665;51.368;6.782;2023-02-15T06:32:49;29.13;;;18.27;;
9256;SDS011;4665;51.368;6.782;2023-02-15T06:35:14;24.47;;;17.47;;
9256;SDS011;4665;51.368;6.782;2023-02-15T06:37:40;25.50;;;18.47;;
9256;SDS011;4665;51.368;6.782;2023-02-15T06:40:06;24.57;;;16.87;;
9256;SDS011;4665;51.368;6.782;2023-02-15T06:42:38;26.03;;;16.30;;
9256;SDS011;4665;51.368;6.782;2023-02-15T06:45:03;26.47;;;16.83;;
9256;SDS011;4665;51.368;6.782;2023-02-15T06:47:29;29.70;;;16.23;;
9256;SDS011;4665;51.368;6.782;2023-02-15T06:49:55;27.03;;;18.47;;
9256;SDS011;4665;51.368;6.782;2023-02-15T06:52:20;28.33;;;17.47;;
9256;SDS011;4665;51.368;6.782;2023-02-15T06:54:46;25.43;;;16.57;;
9256;SDS011;4665;51.368;6.782;2023-02-15T06:57:11;27.77;;;17.40;;
9256;SDS011;4665;51.368;6.782;2023-02-15T06:59:37;25.70;;;17.27;;
9256;SDS011;4665;51.368;6.782;2023-02-15T07:02:02;26.30;;;16.93;;
9256;SDS011;4665;51.368;6.782;2023-02-15T07:04:28;26.17;;;17.00;;
9256;SDS011;4665;51.368;6.782;2023-02-15T07:06:54;26.97;;;18.43;;
9256;SDS011;4665;51.368;6.782;2023-02-15T07:09:21;26.33;;;16.83;;
9256;SDS011;4665;51.368;6.782;2023-02-15T07:11:46;26.67;;;17.83;;
9256;SDS011;4665;51.368;6.782;2023-02-15T07:14:30;26.23;;;16.77;;
9256;SDS011;4665;51.368;6.782;2023-02-15T07:16:56;27.73;;;17.90;;
9256;SDS011;4665;51.368;6.782;2023-02-15T07:19:22;23.97;;;16.20;;
9256;SDS011;4665;51.368;6.782;2023-02-15T07:21:47;24.97;;;16.50;;
9256;SDS011;4665;51.368;6.782;2023-02-15T07:24:13;24.40;;;16.30;;
9256;SDS011;4665;51.368;6.782;2023-02-15T07:26:39;20.90;;;15.40;;
9256;SDS011;4665;51.368;6.782;2023-02-15T07:29:04;26.07;;;17.30;;
9256;SDS011;4665;51.368;6.782;2023-02-15T07:31:29;27.43;;;17.93;;
9256;SDS011;4665;51.368;6.782;2023-02-15T07:33:57;24.90;;;17.40;;
9256;SDS011;4665;51.368;6.782;2023-02-15T07:36:23;23.73;;;15.60;;
9256;SDS011;4665;51.368;6.782;2023-02-15T07:38:48;22.13;;;16.13;;
9256;SDS011;4665;51.368;6.782;2023-02-15T07:41:14;24.07;;;15.73;;
9256;SDS011;4665;51.368;6.782;2023-02-15T07:43:41;24.93;;;16.87;;
9256;SDS011;4665;51.368;6.782;2023-02-15T07:46:09;27.00;;;16.70;;
9256;SDS011;4665;51.368;6.782;2023-02-15T07:48:37;24.10;;;17.03;;
9256;SDS011;4665;51.368;6.782;2023-02-15T07:51:04;23.17;;;15.87;;
9256;SDS011;4665;51.368;6.782;2023-02-15T07:53:31;26.17;;;17.27;;
9256;SDS011;4665;51.368;6.782;2023-02-15T07:58:43;24.33;;;16.43;;
9256;SDS011;4665;51.368;6.782;2023-02-15T08:01:34;25.87;;;16.07;;
9256;SDS011;4665;51.368;6.782;2023-02-15T08:04:02;25.63;;;17.43;;
9256;SDS011;4665;51.368;6.782;2023-02-15T08:06:30;23.80;;;16.67;;
9256;SDS011;4665;51.368;6.782;2023-02-15T08:08:57;23.40;;;16.73;;
9256;SDS011;4665;51.368;6.782;2023-02-15T08:11:23;21.93;;;15.60;;
9256;SDS011;4665;51.368;6.782;2023-02-15T08:13:54;26.20;;;16.53;;
9256;SDS011;4665;51.368;6.782;2023-02-15T08:19:07;23.37;;;16.37;;
9256;SDS011;4665;51.368;6.782;2023-02-15T08:21:44;23.57;;;17.13;;
9256;SDS011;4665;51.368;6.782;2023-02-15T08:24:18;21.53;;;15.50;;
9256;SDS011;4665;51.368;6.782;2023-02-15T08:26:45;22.97;;;15.70;;
9256;SDS011;4665;51.368;6.782;2023-02-15T08:29:13;21.73;;;15.97;;
9256;SDS011;4665;51.368;6.782;2023-02-15T08:31:39;25.80;;;16.00;;
9256;SDS011;4665;51.368;6.782;2023-02-15T08:34:06;25.30;;;16.00;;
9256;SDS011;4665;51.368;6.782;2023-02-15T08:36:33;26.47;;;15.93;;
9256;SDS011;4665;51.368;6.782;2023-02-15T08:39:01;19.90;;;14.73;;
9256;SDS011;4665;51.368;6.782;2023-02-15T08:41:29;23.37;;;15.23;;
9256;SDS011;4665;51.368;6.782;2023-02-15T08:44:04;20.97;;;15.03;;
9256;SDS011;4665;51.368;6.782;2023-02-15T08:46:32;22.20;;;15.17;;
9256;SDS011;4665;51.368;6.782;2023-02-15T08:48:59;20.67;;;14.43;;
9256;SDS011;4665;51.368;6.782;2023-02-15T08:51:26;18.93;;;14.00;;
9256;SDS011;4665;51.368;6.782;2023-02-15T08:53:55;19.20;;;13.93;;
9256;SDS011;4665;51.368;6.782;2023-02-15T08:56:22;19.90;;;13.83;;
9256;SDS011;4665;51.368;6.782;2023-02-15T08:58:49;18.10;;;13.37;;
9256;SDS011;4665;51.368;6.782;2023-02-15T09:01:17;19.13;;;13.63;;
9256;SDS011;4665;51.368;6.782;2023-02-15T09:03:48;17.70;;;13.57;;
9256;SDS011;4665;51.368;6.782;2023-02-15T09:06:20;19.97;;;13.30;;
9256;SDS011;4665;51.368;6.782;2023-02-15T09:08:46;20.33;;;14.03;;
9256;SDS011;4665;51.368;6.782;2023-02-15T09:11:13;19.07;;;14.17;;
9256;SDS011;4665;51.368;6.782;2023-02-15T09:13:47;17.97;;;12.53;;
9256;SDS011;4665;51.368;6.782;2023-02-15T09:16:13;18.07;;;13.33;;
9256;SDS011;4665;51.368;6.782;2023-02-15T09:18:41;17.47;;;12.93;;
9256;SDS011;4665;51.368;6.782;2023-02-15T09:21:08;17.47;;;12.50;;
9256;SDS011;4665;51.368;6.782;2023-02-15T09:23:38;17.77;;;12.67;;
9256;SDS011;4665;51.368;6.782;2023-02-15T09:26:05;18.13;;;12.77;;
9256;SDS011;4665;51.368;6.782;2023-02-15T09:28:32;16.17;;;12.27;;
9256;SDS011;4665;51.368;6.782;2023-02-15T09:31:04;15.67;;;12.23;;
9256;SDS011;4665;51.368;6.782;2023-02-15T09:33:33;16.63;;;12.50;;
9256;SDS011;4665;51.368;6.782;2023-02-15T09:36:00;15.97;;;11.83;;
9256;SDS011;4665;51.368;6.782;2023-02-15T09:38:26;17.23;;;12.60;;
9256;SDS011;4665;51.368;6.782;2023-02-15T09:41:30;18.57;;;12.47;;
9256;SDS011;4665;51.368;6.782;2023-02-15T09:46:50;16.87;;;11.63;;
9256;SDS011;4665;51.368;6.782;2023-02-15T09:55:36;15.87;;;12.43;;
9256;SDS011;4665;51.368;6.782;2023-02-15T10:23:03;13.53;;;11.17;;
9256;SDS011;4665;51.368;6.782;2023-02-15T10:28:06;14.17;;;10.50;;
9256;SDS011;4665;51.368;6.782;2023-02-15T10:36:26;15.23;;;11.50;;
9256;SDS011;4665;51.368;6.782;2023-02-15T10:44:22;13.23;;;10.27;;
9256;SDS011;4665;51.368;6.782;2023-02-15T11:00:27;13.00;;;10.50;;
9256;SDS011;4665;51.368;6.782;2023-02-15T11:05:56;13.87;;;10.23;;
9256;SDS011;4665;51.368;6.782;2023-02-15T11:08:23;16.30;;;11.80;;
9256;SDS011;4665;51.368;6.782;2023-02-15T11:11:00;14.63;;;11.10;;
9256;SDS011;4665;51.368;6.782;2023-02-15T11:13:32;13.50;;;10.00;;
9256;SDS011;4665;51.368;6.782;2023-02-15T11:16:05;15.20;;;11.40;;
9256;SDS011;4665;51.368;6.782;2023-02-15T11:18:51;13.50;;;9.90;;
9256;SDS011;4665;51.368;6.782;2023-02-15T11:21:22;13.43;;;10.40;;
9256;SDS011;4665;51.368;6.782;2023-02-15T11:23:54;15.93;;;11.20;;
9256;SDS011;4665;51.368;6.782;2023-02-15T11:37:54;13.73;;;10.57;;
9256;SDS011;4665;51.368;6.782;2023-02-15T11:40:27;13.00;;;10.50;;
9256;SDS011;4665;51.368;6.782;2023-02-15T11:42:57;14.20;;;10.23;;
9256;SDS011;4665;51.368;6.782;2023-02-15T11:45:32;11.53;;;9.70;;
9256;SDS011;4665;51.368;6.782;2023-02-15T11:47:59;15.83;;;10.70;;
9256;SDS011;4665;51.368;6.782;2023-02-15T11:50:28;12.47;;;10.27;;
9256;SDS011;4665;51.368;6.782;2023-02-15T11:53:00;12.27;;;10.40;;
9256;SDS011;4665;51.368;6.782;2023-02-15T11:55:29;13.40;;;9.87;;
9256;SDS011;4665;51.368;6.782;2023-02-15T12:03:55;13.50;;;10.30;;
9256;SDS011;4665;51.368;6.782;2023-02-15T12:06:29;16.13;;;9.47;;
9256;SDS011;4665;51.368;6.782;2023-02-15T12:09:05;14.87;;;10.70;;
9256;SDS011;4665;51.368;6.782;2023-02-15T12:11:55;14.47;;;9.87;;
9256;SDS011;4665;51.368;6.782;2023-02-15T12:14:54;11.87;;;9.03;;
9256;SDS011;4665;51.368;6.782;2023-02-15T12:17:23;12.93;;;10.20;;
9256;SDS011;4665;51.368;6.782;2023-02-15T12:19:52;14.60;;;9.87;;
9256;SDS011;4665;51.368;6.782;2023-02-15T12:22:24;15.10;;;9.17;;
9256;SDS011;4665;51.368;6.782;2023-02-15T12:24:55;11.13;;;9.53;;
9256;SDS011;4665;51.368;6.782;2023-02-15T12:27:26;12.57;;;9.17;;
9256;SDS011;4665;51.368;6.782;2023-02-15T12:29:56;12.70;;;9.20;;
9256;SDS011;4665;51.368;6.782;2023-02-15T12:32:34;10.10;;;7.97;;
9256;SDS011;4665;51.368;6.782;2023-02-15T12:35:06;11.83;;;9.30;;
9256;SDS011;4665;51.368;6.782;2023-02-15T12:37:39;12.53;;;9.33;;
9256;SDS011;4665;51.368;6.782;2023-02-15T12:40:20;11.97;;;8.40;;
9256;SDS011;4665;51.368;6.782;2023-02-15T12:42:48;11.23;;;9.20;;
9256;SDS011;4665;51.368;6.782;2023-02-15T12:45:27;9.63;;;8.63;;
9256;SDS011;4665;51.368;6.782;2023-02-15T12:48:12;11.50;;;9.10;;
9256;SDS011;4665;51.368;6.782;2023-02-15T12:50:41;13.17;;;10.03;;
9256;SDS011;4665;51.368;6.782;2023-02-15T12:55:54;12.03;;;9.37;;
9256;SDS011;4665;51.368;6.782;2023-02-15T12:58:25;10.40;;;8.60;;
9256;SDS011;4665;51.368;6.782;2023-02-15T13:01:09;10.10;;;9.03;;
9256;SDS011;4665;51.368;6.782;2023-02-15T13:06:20;12.80;;;9.07;;
9256;SDS011;4665;51.368;6.782;2023-02-15T13:08:47;12.60;;;9.07;;
9256;SDS011;4665;51.368;6.782;2023-02-15T13:11:36;12.87;;;9.23;;
9256;SDS011;4665;51.368;6.782;2023-02-15T13:14:03;11.73;;;9.07;;
9256;SDS011;4665;51.368;6.782;2023-02-15T13:16:42;10.50;;;8.67;;
9256;SDS011;4665;51.368;6.782;2023-02-15T13:21:54;14.13;;;9.57;;
9256;SDS011;4665;51.368;6.782;2023-02-15T13:26:54;10.17;;;8.20;;
9256;SDS011;4665;51.368;6.782;2023-02-15T13:29:28;11.77;;;9.07;;
9256;SDS011;4665;51.368;6.782;2023-02-15T13:31:57;13.23;;;9.80;;
9256;SDS011;4665;51.368;6.782;2023-02-15T13:34:33;10.37;;;8.47;;
9256;SDS011;4665;51.368;6.782;2023-02-15T13:37:05;14.30;;;9.50;;
9256;SDS011;4665;51.368;6.782;2023-02-15T13:39:41;10.77;;;8.53;;
9256;SDS011;4665;51.368;6.782;2023-02-15T13:42:26;12.13;;;8.53;;
9256;SDS011;4665;51.368;6.782;2023-02-15T13:48:04;9.97;;;8.13;;
9256;SDS011;4665;51.368;6.782;2023-02-15T13:53:48;11.23;;;8.57;;
9256;SDS011;4665;51.368;6.782;2023-02-15T13:59:46;12.20;;;9.40;;
9256;SDS011;4665;51.368;6.782;2023-02-15T14:02:43;11.93;;;8.80;;
9256;SDS011;4665;51.368;6.782;2023-02-15T14:11:06;12.87;;;8.67;;
9256;SDS011;4665;51.368;6.782;2023-02-15T14:13:51;10.97;;;9.00;;
9256;SDS011;4665;51.368;6.782;2023-02-15T14:16:24;10.93;;;8.37;;
9256;SDS011;4665;51.368;6.782;2023-02-15T14:21:55;15.80;;;9.63;;
9256;SDS011;4665;51.368;6.782;2023-02-15T14:30:03;16.93;;;10.13;;
9256;SDS011;4665;51.368;6.782;2023-02-15T14:32:42;12.60;;;8.80;;
9256;SDS011;4665;51.368;6.782;2023-02-15T14:35:15;12.27;;;9.50;;
9256;SDS011;4665;51.368;6.782;2023-02-15T14:38:00;12.37;;;9.50;;
9256;SDS011;4665;51.368;6.782;2023-02-15T14:48:47;13.73;;;9.83;;
9256;SDS011;4665;51.368;6.782;2023-02-15T14:56:42;12.43;;;9.07;;
9256;SDS011;4665;51.368;6.782;2023-02-15T14:59:45;14.23;;;10.37;;
9256;SDS011;4665;51.368;6.782;2023-02-15T15:05:24;11.53;;;8.27;;
9256;SDS011;4665;51.368;6.782;2023-02-15T15:07:55;14.27;;;9.67;;
9256;SDS011;4665;51.368;6.782;2023-02-15T15:10:41;14.13;;;9.23;;
9256;SDS011;4665;51.368;6.782;2023-02-15T15:18:50;13.70;;;9.83;;
9256;SDS011;4665;51.368;6.782;2023-02-15T15:49:45;12.07;;;9.17;;
9256;SDS011;4665;51.368;6.782;2023-02-15T15:52:15;10.57;;;8.27;;
9256;SDS011;4665;51.368;6.782;2023-02-15T15:54:43;10.53;;;8.23;;
9256;SDS011;4665;51.368;6.782;2023-02-15T15:57:45;11.93;;;9.37;;
9256;SDS011;4665;51.368;6.782;2023-02-15T16:00:54;11.33;;;8.27;;
9256;SDS011;4665;51.368;6.782;2023-02-15T16:03:15;13.83;;;9.60;;
9256;SDS011;4665;51.368;6.782;2023-02-15T16:05:48;12.97;;;9.33;;
9256;SDS011;4665;51.368;6.782;2023-02-15T16:08:33;10.90;;;8.33;;
9256;SDS011;4665;51.368;6.782;2023-02-15T16:11:07;10.77;;;8.33;;
9256;SDS011;4665;51.368;6.782;2023-02-15T16:13:41;10.90;;;8.37;;
9256;SDS011;4665;51.368;6.782;2023-02-15T16:16:08;9.77;;;8.10;;
9256;SDS011;4665;51.368;6.782;2023-02-15T16:18:37;10.93;;;8.40;;
9256;SDS011;4665;51.368;6.782;2023-02-15T16:21:14;12.00;;;8.70;;
9256;SDS011;4665;51.368;6.782;2023-02-15T16:29:26;12.77;;;8.27;;
9256;SDS011;4665;51.368;6.782;2023-02-15T16:32:01;12.07;;;9.10;;
9256;SDS011;4665;51.368;6.782;2023-02-15T16:34:28;13.97;;;9.10;;
9256;SDS011;4665;51.368;6.782;2023-02-15T16:37:19;11.07;;;9.27;;
9256;SDS011;4665;51.368;6.782;2023-02-15T16:39:48;12.53;;;9.33;;
9256;SDS011;4665;51.368;6.782;2023-02-15T16:42:14;11.23;;;8.47;;
9256;SDS011;4665;51.368;6.782;2023-02-15T16:44:42;11.60;;;8.70;;
9256;SDS011;4665;51.368;6.782;2023-02-15T16:47:12;11.23;;;8.07;;
9256;SDS011;4665;51.368;6.782;2023-02-15T16:49:45;10.50;;;9.00;;
9256;SDS011;4665;51.368;6.782;2023-02-15T16:52:14;11.43;;;8.43;;
9256;SDS011;4665;51.368;6.782;2023-02-15T16:54:45;10.27;;;8.60;;
9256;SDS011;4665;51.368;6.782;2023-02-15T16:57:19;10.73;;;8.47;;
9256;SDS011;4665;51.368;6.782;2023-02-15T16:59:50;11.20;;;9.00;;
9256;SDS011;4665;51.368;6.782;2023-02-15T17:02:19;11.40;;;9.10;;
9256;SDS011;4665;51.368;6.782;2023-02-15T17:07:52;10.93;;;9.20;;
9256;SDS011;4665;51.368;6.782;2023-02-15T17:13:37;11.17;;;9.17;;
9256;SDS011;4665;51.368;6.782;2023-02-15T17:18:33;11.63;;;8.83;;
9256;SDS011;4665;51.368;6.782;2023-02-15T17:24:05;10.90;;;8.23;;
9256;SDS011;4665;51.368;6.782;2023-02-15T17:26:32;14.93;;;9.43;;
9256;SDS011;4665;51.368;6.782;2023-02-15T17:31:58;11.40;;;8.97;;
9256;SDS011;4665;51.368;6.782;2023-02-15T17:37:59;13.33;;;9.63;;
9256;SDS011;4665;51.368;6.782;2023-02-15T17:40:05;12.07;;;9.03;;
9256;SDS011;4665;51.368;6.782;2023-02-15T17:42:44;14.23;;;10.03;;
9256;SDS011;4665;51.368;6.782;2023-02-15T17:45:09;13.87;;;9.67;;
9256;SDS011;4665;51.368;6.782;2023-02-15T17:47:35;11.20;;;9.60;;
9256;SDS011;4665;51.368;6.782;2023-02-15T17:50:01;11.23;;;9.07;;
9256;SDS011;4665;51.368;6.782;2023-02-15T17:52:28;13.60;;;10.03;;
9256;SDS011;4665;51.368;6.782;2023-02-15T17:54:54;11.67;;;9.93;;
9256;SDS011;4665;51.368;6.782;2023-02-15T17:57:38;15.17;;;10.83;;
9256;SDS011;4665;51.368;6.782;2023-02-15T18:00:05;10.90;;;9.57;;
9256;SDS011;4665;51.368;6.782;2023-02-15T18:02:50;13.43;;;9.30;;
9256;SDS011;4665;51.368;6.782;2023-02-15T18:05:34;12.17;;;8.83;;
9256;SDS011;4665;51.368;6.782;2023-02-15T18:08:19;10.97;;;9.00;;
9256;SDS011;4665;51.368;6.782;2023-02-15T18:11:08;13.87;;;11.10;;
9256;SDS011;4665;51.368;6.782;2023-02-15T18:13:52;13.13;;;10.33;;
9256;SDS011;4665;51.368;6.782;2023-02-15T18:16:22;13.77;;;9.83;;
9256;SDS011;4665;51.368;6.782;2023-02-15T18:18:50;11.33;;;9.53;;
9256;SDS011;4665;51.368;6.782;2023-02-15T18:21:16;10.57;;;9.33;;
9256;SDS011;4665;51.368;6.782;2023-02-15T18:23:41;13.03;;;10.47;;
9256;SDS011;4665;51.368;6.782;2023-02-15T18:26:08;10.73;;;9.10;;
9256;SDS011;4665;51.368;6.782;2023-02-15T18:28:37;12.40;;;9.77;;
9256;SDS011;4665;51.368;6.782;2023-02-15T18:31:02;13.20;;;10.27;;
9256;SDS011;4665;51.368;6.782;2023-02-15T18:33:33;11.20;;;9.57;;
9256;SDS011;4665;51.368;6.782;2023-02-15T18:36:30;10.53;;;8.73;;
9256;SDS011;4665;51.368;6.782;2023-02-15T18:38:58;11.43;;;9.80;;
9256;SDS011;4665;51.368;6.782;2023-02-15T18:41:24;11.33;;;9.63;;
9256;SDS011;4665;51.368;6.782;2023-02-15T18:43:50;11.97;;;9.00;;
9256;SDS011;4665;51.368;6.782;2023-02-15T18:46:18;13.80;;;9.67;;
9256;SDS011;4665;51.368;6.782;2023-02-15T18:48:46;10.23;;;9.13;;
9256;SDS011;4665;51.368;6.782;2023-02-15T18:51:23;11.03;;;8.77;;
9256;SDS011;4665;51.368;6.782;2023-02-15T18:53:50;12.40;;;8.87;;
9256;SDS011;4665;51.368;6.782;2023-02-15T18:56:18;11.90;;;9.67;;
9256;SDS011;4665;51.368;6.782;2023-02-15T18:58:45;11.13;;;8.87;;
9256;SDS011;4665;51.368;6.782;2023-02-15T19:01:12;11.20;;;8.83;;